Time;durP1;ratioP1;P1;durP2;ratioP2;P2;SDS_P1;SDS_P2;PMS_P1;PMS_P2;Temp;Humidity;BMP_temperature;BMP_pressure;BME280_temperature;BME280_humidity;BME280_pressure;Samples;Min_cycle;Max_cycle;Signal;HPM_P1;HPM_P2
2023/09/28 03:02:05;;;;;;;;;;;17.70;99.90;;;;;;5253693;23;19929;-78
2023/09/28 03:04:33;;;;;;;;;;;17.70;99.90;;;;;;4997566;28;19921;-77
2023/09/28 03:06:59;;;;;;;;;;;17.70;99.90;;;;;;4981459;28;20284;-81
2023/09/28 03:09:24;;;;;;;;;;;17.70;99.90;;;;;;4981152;28;19936;-78
2023/09/28 03:11:50;;;;;;;;;;;17.70;99.90;;;;;;4994042;28;19929;-78
2023/09/28 03:14:16;;;;;;;;;;;17.60;99.90;;;;;;4994017;28;19922;-75
2023/09/28 03:16:42;;;;;;;;;;;17.60;99.90;;;;;;4994018;28;19921;-79
2023/09/28 03:19:08;;;;;;;;;;;17.70;99.90;;;;;;4993983;28;19922;-78
2023/09/28 03:21:35;;;;;;;;;;;17.60;99.90;;;;;;4993824;28;20300;-78
2023/09/28 03:24:01;;;;;;;;;;;17.60;99.90;;;;;;4993734;28;20233;-77
2023/09/28 03:26:30;;;;;;;;;;;17.60;99.90;;;;;;4992773;28;20273;-79
2023/09/28 03:28:58;;;;;;;;;;;17.60;99.90;;;;;;4993023;28;19926;-78
2023/09/28 03:31:27;;;;;;;;;;;17.60;99.90;;;;;;4993677;28;19972;-77
2023/09/28 03:33:53;;;;;;;;;;;17.60;99.90;;;;;;4993917;28;19922;-77
2023/09/28 03:36:19;;;;;;;;;;;17.60;99.90;;;;;;4992333;28;19985;-78
2023/09/28 03:38:45;;;;;;;;;;;17.60;99.90;;;;;;4993878;28;19973;-80
2023/09/28 03:41:10;;;;;;;;;;;17.60;99.90;;;;;;4993775;28;19922;-78
2023/09/28 03:43:36;;;;;;;;;;;17.60;99.90;;;;;;4995055;28;19922;-78
2023/09/28 03:46:02;;;;;;;;;;;17.60;99.90;;;;;;4993797;28;20352;-77
2023/09/28 03:48:27;;;;;;;;;;;17.60;99.90;;;;;;4993388;28;20373;-78
2023/09/28 03:50:53;;;;;;;;;;;17.60;99.90;;;;;;4993385;28;19928;-78
2023/09/28 03:53:18;;;;;;;;;;;17.60;99.90;;;;;;4993367;28;19948;-77
2023/09/28 03:55:46;;;;;;;;;;;17.60;99.90;;;;;;4993681;28;20402;-79
2023/09/28 03:58:11;;;;;;;;;;;17.60;99.90;;;;;;4993321;28;20008;-77
2023/09/28 04:00:37;;;;;;;;;;;17.60;99.90;;;;;;4993161;28;20356;-77
2023/09/28 04:03:03;;;;;;;;;;;17.60;99.90;;;;;;4995139;28;19922;-76
2023/09/28 04:05:28;;;;;;;;;;;17.60;99.90;;;;;;4993282;28;19929;-78
2023/09/28 04:07:54;;;;;;;;;;;17.50;99.90;;;;;;4993494;28;19929;-77
2023/09/28 04:10:20;;;;;;;;;;;17.50;99.90;;;;;;4993372;28;20370;-79
2023/09/28 04:12:46;;;;;;;;;;;17.40;99.90;;;;;;4993191;28;19922;-77
2023/09/28 04:15:11;;;;;;;;;;;17.30;99.90;;;;;;4994428;28;19968;-77
2023/09/28 04:17:37;;;;;;;;;;;17.20;99.90;;;;;;4993459;28;19922;-78
2023/09/28 04:20:04;;;;;;;;;;;17.20;99.90;;;;;;4994255;28;19922;-79
2023/09/28 04:22:30;;;;;;;;;;;17.10;99.90;;;;;;4993054;28;20016;-79
2023/09/28 04:24:55;;;;;;;;;;;17.00;99.90;;;;;;4993142;28;19992;-78
2023/09/28 04:27:21;;;;;;;;;;;16.90;99.90;;;;;;4993019;28;19922;-77
2023/09/28 04:29:46;;;;;;;;;;;16.90;99.90;;;;;;4993012;28;19926;-78
2023/09/28 04:32:12;;;;;;;;;;;16.90;99.90;;;;;;4992918;28;19972;-76
2023/09/28 04:34:39;;;;;;;;;;;16.80;99.90;;;;;;4993035;28;19926;-78
2023/09/28 04:37:05;;;;;;;;;;;16.80;99.90;;;;;;4994223;28;19975;-79
2023/09/28 04:39:31;;;;;;;;;;;16.80;99.90;;;;;;4992966;28;19921;-78
2023/09/28 04:41:58;;;;;;;;;;;16.90;99.90;;;;;;4993099;28;19991;-77
2023/09/28 04:44:23;;;;;;;;;;;16.90;99.90;;;;;;4993212;28;19949;-79
2023/09/28 04:46:52;;;;;;;;;;;17.00;99.90;;;;;;4993510;28;19921;-77
2023/09/28 04:49:17;;;;;;;;;;;17.00;99.90;;;;;;4996710;28;19926;-78
2023/09/28 04:51:43;;;;;;;;;;;17.00;99.90;;;;;;4996997;28;19922;-77
2023/09/28 04:54:09;;;;;;;;;;;17.00;99.90;;;;;;4996931;28;20292;-76
2023/09/28 04:56:35;;;;;;;;;;;17.00;99.90;;;;;;4996998;28;19925;-78
2023/09/28 04:59:00;;;;;;;;;;;17.00;99.90;;;;;;4996974;28;19929;-77
2023/09/28 05:01:26;;;;;;;;;;;17.00;99.90;;;;;;4996349;28;19944;-79
2023/09/28 05:03:53;;;;;;;;;;;16.90;99.90;;;;;;4998386;28;20287;-78
2023/09/28 05:06:19;;;;;;;;;;;16.90;99.90;;;;;;4996823;28;19922;-77
2023/09/28 05:08:44;;;;;;;;;;;16.90;99.90;;;;;;4996456;28;19929;-79
2023/09/28 05:11:10;;;;;;;;;;;16.80;99.90;;;;;;4996578;28;20353;-79
2023/09/28 05:13:35;;;;;;;;;;;16.80;99.90;;;;;;4996716;28;20266;-78
2023/09/28 05:16:01;;;;;;;;;;;16.70;99.90;;;;;;4996303;28;20408;-79
2023/09/28 05:18:26;;;;;;;;;;;16.70;99.90;;;;;;4996553;28;20040;-78
2023/09/28 05:20:52;;;;;;;;;;;16.70;99.90;;;;;;4997356;28;19921;-78
2023/09/28 05:23:19;;;;;;;;;;;16.60;99.90;;;;;;4996180;28;19921;-78
2023/09/28 05:25:44;;;;;;;;;;;16.60;99.90;;;;;;4996421;28;19926;-78
2023/09/28 05:28:10;;;;;;;;;;;16.60;99.90;;;;;;4997790;28;20265;-77
2023/09/28 05:30:35;;;;;;;;;;;16.60;99.90;;;;;;4996394;28;20452;-76
2023/09/28 05:33:01;;;;;;;;;;;16.50;99.90;;;;;;4995881;28;19965;-78
2023/09/28 05:35:27;;;;;;;;;;;16.60;99.90;;;;;;4995887;28;20293;-77
2023/09/28 05:37:52;;;;;;;;;;;16.50;99.90;;;;;;4995477;28;19929;-77
2023/09/28 05:40:18;;;;;;;;;;;16.50;99.90;;;;;;4979589;28;19921;-77
2023/09/28 05:42:44;;;;;;;;;;;16.50;99.90;;;;;;4995858;28;20020;-79
2023/09/28 05:45:09;;;;;;;;;;;16.50;99.90;;;;;;4995871;28;20004;-79
2023/09/28 05:47:35;;;;;;;;;;;16.50;99.90;;;;;;4995689;28;20064;-78
2023/09/28 05:50:01;;;;;;;;;;;16.40;99.90;;;;;;4995490;28;19930;-77
2023/09/28 05:52:27;;;;;;;;;;;16.40;99.90;;;;;;4995454;28;19922;-79
2023/09/28 05:54:53;;;;;;;;;;;16.40;99.90;;;;;;4995819;28;19944;-79
2023/09/28 05:57:21;;;;;;;;;;;16.40;99.90;;;;;;4995707;28;20381;-80
2023/09/28 05:59:46;;;;;;;;;;;16.40;99.90;;;;;;4994682;28;19922;-78
2023/09/28 06:02:12;;;;;;;;;;;16.40;99.90;;;;;;4995444;28;19928;-78
2023/09/28 06:04:38;;;;;;;;;;;16.40;99.90;;;;;;4995728;28;19922;-78
2023/09/28 06:07:03;;;;;;;;;;;16.40;99.90;;;;;;4995338;28;19925;-77
2023/09/28 06:09:29;;;;;;;;;;;16.40;99.90;;;;;;4995187;28;20020;-78
2023/09/28 06:11:57;;;;;;;;;;;16.40;99.90;;;;;;4994939;28;19932;-78
2023/09/28 06:14:23;;;;;;;;;;;16.40;99.90;;;;;;4995038;28;19922;-78
2023/09/28 06:16:48;;;;;;;;;;;16.40;99.90;;;;;;4995194;28;19929;-79
2023/09/28 06:19:14;;;;;;;;;;;16.40;99.90;;;;;;4996296;28;20026;-78
2023/09/28 06:21:40;;;;;;;;;;;16.40;99.90;;;;;;4995016;28;19922;-79
2023/09/28 06:24:05;;;;;;;;;;;16.40;99.90;;;;;;4994936;28;19921;-78
2023/09/28 06:26:32;;;;;;;;;;;16.40;99.90;;;;;;4996028;28;19922;-77
2023/09/28 06:28:58;;;;;;;;;;;16.40;99.90;;;;;;4994878;28;19926;-77
2023/09/28 06:31:23;;;;;;;;;;;16.40;99.90;;;;;;4995065;28;19923;-79
2023/09/28 06:33:49;;;;;;;;;;;16.40;99.90;;;;;;4994763;28;20030;-77
2023/09/28 06:36:15;;;;;;;;;;;16.50;99.90;;;;;;4994667;28;20085;-78
2023/09/28 06:38:41;;;;;;;;;;;16.50;99.90;;;;;;4994959;28;19921;-77
2023/09/28 06:41:06;;;;;;;;;;;16.50;99.90;;;;;;4994522;28;20392;-79
2023/09/28 06:43:32;;;;;;;;;;;16.50;99.90;;;;;;4994566;28;19922;-78
2023/09/28 06:45:58;;;;;;;;;;;16.50;99.90;;;;;;4995795;28;19922;-79
2023/09/28 06:48:26;;;;;;;;;;;16.50;99.90;;;;;;4994685;28;20123;-77
2023/09/28 06:50:53;;;;;;;;;;;16.50;99.90;;;;;;4994350;28;20369;-79
2023/09/28 06:53:19;;;;;;;;;;;16.50;99.90;;;;;;4994477;28;19929;-77
2023/09/28 06:55:44;;;;;;;;;;;16.50;99.90;;;;;;4995622;28;19926;-81
2023/09/28 06:58:14;;;;;;;;;;;16.50;99.90;;;;;;4994250;28;19969;-80
2023/09/28 07:00:40;;;;;;;;;;;16.60;99.90;;;;;;4994170;28;19976;-77
2023/09/28 07:03:06;;;;;;;;;;;16.60;99.90;;;;;;4994559;28;20261;-79
2023/09/28 07:05:33;;;;;;;;;;;16.60;99.90;;;;;;4994543;28;20049;-79
2023/09/28 07:07:59;;;;;;;;;;;16.70;99.90;;;;;;4994068;28;19977;-77
2023/09/28 07:10:25;;;;;;;;;;;16.70;99.90;;;;;;4993975;28;20023;-78
2023/09/28 07:12:50;;;;;;;;;;;16.70;99.90;;;;;;4994155;28;19921;-80
2023/09/28 07:15:16;;;;;;;;;;;16.80;99.90;;;;;;4993979;28;19921;-76
2023/09/28 07:17:42;;;;;;;;;;;16.80;99.90;;;;;;4994180;28;19922;-77
2023/09/28 07:20:09;;;;;;;;;;;16.80;99.90;;;;;;4995707;28;19922;-77
2023/09/28 07:22:35;;;;;;;;;;;16.90;99.90;;;;;;4993921;28;19922;-78
2023/09/28 07:25:00;;;;;;;;;;;16.90;99.90;;;;;;4993854;28;19960;-78
2023/09/28 07:27:31;;;;;;;;;;;17.00;99.90;;;;;;4993956;28;19972;-78
2023/09/28 07:29:57;;;;;;;;;;;17.00;99.90;;;;;;4993855;28;19926;-77
2023/09/28 07:32:23;;;;;;;;;;;17.10;99.90;;;;;;4977551;28;19922;-78
2023/09/28 07:34:48;;;;;;;;;;;17.10;99.90;;;;;;4993687;28;19929;-80
2023/09/28 07:37:15;;;;;;;;;;;17.10;99.90;;;;;;4993950;28;19925;-77
2023/09/28 07:39:40;;;;;;;;;;;17.10;99.90;;;;;;4993656;28;20005;-77
2023/09/28 07:42:08;;;;;;;;;;;17.20;99.90;;;;;;4994823;28;20012;-77
2023/09/28 07:44:34;;;;;;;;;;;17.20;99.90;;;;;;4993360;28;19928;-77
2023/09/28 07:47:00;;;;;;;;;;;17.30;99.90;;;;;;4994814;28;19945;-78
2023/09/28 07:49:25;;;;;;;;;;;17.30;99.90;;;;;;4993461;28;20369;-76
2023/09/28 07:51:51;;;;;;;;;;;17.30;99.90;;;;;;4993281;28;20343;-77
2023/09/28 07:54:17;;;;;;;;;;;17.30;99.90;;;;;;4993443;28;19921;-77
2023/09/28 07:56:42;;;;;;;;;;;17.30;99.90;;;;;;4993322;28;20012;-79
2023/09/28 07:59:08;;;;;;;;;;;17.40;99.90;;;;;;4993582;28;19922;-77
2023/09/28 08:01:37;;;;;;;;;;;17.50;99.90;;;;;;4993106;28;19921;-78
2023/09/28 08:04:03;;;;;;;;;;;17.40;99.90;;;;;;4993192;28;19921;-76
2023/09/28 08:06:28;;;;;;;;;;;17.50;99.90;;;;;;4993581;28;19922;-76
2023/09/28 08:08:54;;;;;;;;;;;17.50;99.90;;;;;;4993293;28;19926;-77
2023/09/28 08:11:19;;;;;;;;;;;17.50;99.90;;;;;;4993189;28;19968;-78
2023/09/28 08:13:45;;;;;;;;;;;17.50;99.90;;;;;;4977313;28;20014;-77
2023/09/28 08:16:10;;;;;;;;;;;17.60;99.90;;;;;;4993127;28;19972;-80
2023/09/28 08:18:36;;;;;;;;;;;17.60;99.90;;;;;;4993439;28;19997;-78
2023/09/28 08:21:03;;;;;;;;;;;17.60;99.90;;;;;;4993253;28;20432;-78
2023/09/28 08:23:30;;;;;;;;;;;17.70;99.90;;;;;;4992982;28;19926;-76
2023/09/28 08:25:55;;;;;;;;;;;17.60;99.90;;;;;;4994341;28;19972;-76
2023/09/28 08:28:22;;;;;;;;;;;17.70;99.90;;;;;;4992968;28;19926;-77
2023/09/28 08:30:47;;;;;;;;;;;17.70;99.90;;;;;;4992963;28;19937;-77
2023/09/28 08:33:15;;;;;;;;;;;17.70;99.90;;;;;;4993259;28;19922;-80
2023/09/28 08:35:46;;;;;;;;;;;17.80;99.90;;;;;;4976790;28;20003;-77
2023/09/28 08:38:11;;;;;;;;;;;17.80;99.90;;;;;;4976754;28;20373;-79
2023/09/28 08:40:39;;;;;;;;;;;17.80;99.90;;;;;;4976539;28;20017;-77
2023/09/28 08:43:06;;;;;;;;;;;17.80;99.90;;;;;;4992386;28;19972;-76
2023/09/28 08:45:32;;;;;;;;;;;17.80;99.90;;;;;;4992348;28;19922;-76
2023/09/28 08:48:00;;;;;;;;;;;17.80;99.90;;;;;;4992031;28;19979;-78
2023/09/28 08:50:33;;;;;;;;;;;17.80;99.90;;;;;;4992382;28;20277;-77
2023/09/28 08:52:59;;;;;;;;;;;17.80;99.90;;;;;;4992253;28;19922;-78
2023/09/28 08:55:27;;;;;;;;;;;17.70;99.90;;;;;;4991506;28;19933;-77
2023/09/28 08:57:53;;;;;;;;;;;17.80;99.90;;;;;;4993037;28;20337;-78
2023/09/28 09:00:23;;;;;;;;;;;17.80;99.90;;;;;;4992855;28;19967;-78
2023/09/28 09:02:50;;;;;;;;;;;17.80;99.90;;;;;;4992737;28;19922;-76
2023/09/28 09:05:16;;;;;;;;;;;17.80;99.90;;;;;;4992947;28;19921;-78
2023/09/28 09:07:42;;;;;;;;;;;17.80;99.90;;;;;;4992664;28;20435;-80
2023/09/28 09:10:11;;;;;;;;;;;17.80;99.90;;;;;;4976252;28;19948;-79
2023/09/28 09:12:37;;;;;;;;;;;17.70;99.90;;;;;;4992510;28;19929;-78
2023/09/28 09:15:04;;;;;;;;;;;17.80;99.90;;;;;;4992892;28;19922;-79
2023/09/28 09:17:31;;;;;;;;;;;17.70;99.90;;;;;;4992566;28;20016;-79
2023/09/28 09:19:58;;;;;;;;;;;17.70;99.90;;;;;;4992534;28;19922;-79
2023/09/28 09:22:25;;;;;;;;;;;17.70;99.90;;;;;;4992437;28;19930;-79
2023/09/28 09:24:54;;;;;;;;;;;17.80;99.90;;;;;;4992456;28;19921;-80
2023/09/28 09:27:30;;;;;;;;;;;17.80;99.90;;;;;;4992742;28;19965;-79
2023/09/28 09:30:07;;;;;;;;;;;17.80;99.90;;;;;;4992230;28;20397;-79
2023/09/28 09:32:34;;;;;;;;;;;17.80;99.90;;;;;;4993614;28;19961;-78
2023/09/28 09:35:00;;;;;;;;;;;17.80;99.90;;;;;;4994916;28;19922;-78
2023/09/28 09:37:25;;;;;;;;;;;17.80;99.90;;;;;;4995796;28;20271;-77
2023/09/28 09:39:51;;;;;;;;;;;17.80;99.90;;;;;;4980050;28;19922;-79
2023/09/28 09:42:26;;;;;;;;;;;17.90;99.90;;;;;;4996837;28;20378;-78
2023/09/28 09:44:52;;;;;;;;;;;17.90;99.90;;;;;;4996348;28;20258;-78
2023/09/28 09:47:19;;;;;;;;;;;17.90;99.90;;;;;;4980280;28;19976;-77
2023/09/28 09:49:46;;;;;;;;;;;17.90;99.90;;;;;;4995455;28;19929;-79
2023/09/28 09:52:12;;;;;;;;;;;17.90;99.90;;;;;;4995877;28;20016;-79
2023/09/28 09:54:38;;;;;;;;;;;17.80;99.90;;;;;;4995717;28;19969;-78
2023/09/28 09:57:04;;;;;;;;;;;17.80;99.90;;;;;;4995730;28;19922;-80
2023/09/28 09:59:31;;;;;;;;;;;17.80;99.90;;;;;;4995349;28;19926;-78
2023/09/28 10:01:58;;;;;;;;;;;17.80;99.90;;;;;;4995302;28;20012;-77
2023/09/28 10:04:26;;;;;;;;;;;17.80;99.90;;;;;;4995356;28;20402;-77
2023/09/28 10:06:52;;;;;;;;;;;17.80;99.90;;;;;;4995277;28;19968;-76
2023/09/28 10:09:18;;;;;;;;;;;17.70;99.90;;;;;;4996387;28;19926;-77
2023/09/28 10:11:47;;;;;;;;;;;17.80;99.90;;;;;;4995460;28;20419;-78
2023/09/28 10:14:14;;;;;;;;;;;17.80;99.90;;;;;;4995867;28;19977;-79
2023/09/28 10:16:41;;;;;;;;;;;17.90;99.90;;;;;;4995437;28;19922;-79
2023/09/28 10:19:08;;;;;;;;;;;17.90;99.90;;;;;;4995324;28;20016;-76
2023/09/28 10:21:37;;;;;;;;;;;17.90;99.90;;;;;;4995235;28;19921;-78
2023/09/28 10:24:10;;;;;;;;;;;18.00;99.90;;;;;;4995061;28;20396;-80
2023/09/28 10:26:36;;;;;;;;;;;18.00;99.90;;;;;;4995304;28;19988;-79
2023/09/28 10:29:06;;;;;;;;;;;18.10;99.90;;;;;;4994904;28;19984;-77
2023/09/28 10:31:39;;;;;;;;;;;18.10;99.90;;;;;;4994849;28;20008;-79
2023/09/28 10:34:06;;;;;;;;;;;18.10;99.90;;;;;;4995176;28;20305;-77
2023/09/28 10:36:32;;;;;;;;;;;18.10;99.90;;;;;;4994816;28;19921;-79
2023/09/28 10:39:12;;;;;;;;;;;18.20;99.90;;;;;;4994769;28;19921;-77
2023/09/28 10:41:42;;;;;;;;;;;18.20;99.90;;;;;;4994823;28;19922;-76
2023/09/28 10:44:14;;;;;;;;;;;18.20;99.90;;;;;;4996004;28;19921;-77
2023/09/28 10:46:41;;;;;;;;;;;18.20;99.90;;;;;;4994543;28;20353;-78
2023/09/28 10:49:06;;;;;;;;;;;18.20;99.90;;;;;;4994504;28;20356;-79
2023/09/28 10:51:32;;;;;;;;;;;18.30;99.90;;;;;;4994541;28;19922;-78
2023/09/28 10:53:57;;;;;;;;;;;18.30;99.90;;;;;;4994668;28;19972;-80
2023/09/28 10:56:24;;;;;;;;;;;18.30;99.90;;;;;;4978172;28;19921;-78
2023/09/28 10:58:50;;;;;;;;;;;18.40;99.90;;;;;;4994483;28;19922;-77
2023/09/28 11:01:16;;;;;;;;;;;18.40;99.90;;;;;;4994237;28;20337;-78
2023/09/28 11:03:42;;;;;;;;;;;18.30;99.90;;;;;;4994311;28;19928;-78
2023/09/28 11:06:09;;;;;;;;;;;18.30;99.90;;;;;;4994190;28;19922;-79
2023/09/28 11:08:36;;;;;;;;;;;18.40;99.90;;;;;;4994209;28;19933;-78
2023/09/28 11:11:03;;;;;;;;;;;18.30;99.90;;;;;;4994423;28;19957;-77
2023/09/28 11:13:29;;;;;;;;;;;18.40;99.90;;;;;;4994373;28;19922;-78
2023/09/28 11:15:55;;;;;;;;;;;18.40;99.90;;;;;;4995833;28;20250;-77
2023/09/28 11:18:21;;;;;;;;;;;18.40;99.90;;;;;;4993952;28;20012;-79
2023/09/28 11:20:47;;;;;;;;;;;18.50;99.90;;;;;;4977709;28;19965;-77
2023/09/28 11:23:12;;;;;;;;;;;18.50;99.90;;;;;;4993933;28;20372;-78
2023/09/28 11:25:42;;;;;;;;;;;18.50;99.90;;;;;;4995149;28;19922;-77
2023/09/28 11:28:08;;;;;;;;;;;18.50;99.90;;;;;;4993709;28;20382;-80
2023/09/28 11:30:33;;;;;;;;;;;18.50;99.90;;;;;;4994081;28;19933;-79
2023/09/28 11:33:02;;;;;;;;;;;18.50;99.90;;;;;;4993730;28;20412;-77
2023/09/28 11:35:29;;;;;;;;;;;18.50;99.90;;;;;;4994947;28;19922;-79
2023/09/28 11:37:59;;;;;;;;;;;18.50;99.90;;;;;;4994219;28;19949;-79
2023/09/28 11:40:25;;;;;;;;;;;18.50;99.90;;;;;;4993560;28;19926;-77
2023/09/28 11:42:54;;;;;;;;;;;18.50;99.90;;;;;;4977463;28;19922;-82
2023/09/28 11:45:25;;;;;;;;;;;18.50;99.90;;;;;;4995122;28;19922;-78
2023/09/28 11:47:50;;;;;;;;;;;18.50;99.90;;;;;;4993503;28;19921;-78
2023/09/28 11:50:17;;;;;;;;;;;18.60;99.90;;;;;;4977143;28;19921;-80
2023/09/28 11:52:43;;;;;;;;;;;18.60;99.90;;;;;;4993722;28;19925;-78
2023/09/28 11:55:12;;;;;;;;;;;18.70;99.90;;;;;;4993419;28;19989;-78
2023/09/28 11:57:38;;;;;;;;;;;18.70;99.90;;;;;;4992771;28;19922;-80
2023/09/28 12:00:04;;;;;;;;;;;18.80;99.90;;;;;;4993334;28;19929;-77
2023/09/28 12:02:29;;;;;;;;;;;18.80;99.90;;;;;;4993376;28;19944;-80
2023/09/28 12:04:57;;;;;;;;;;;18.80;99.90;;;;;;4993468;28;20395;-79
2023/09/28 12:07:23;;;;;;;;;;;18.90;99.90;;;;;;4993273;28;20008;-78
2023/09/28 12:09:48;;;;;;;;;;;18.90;99.90;;;;;;4993123;28;20121;-80
2023/09/28 12:12:14;;;;;;;;;;;18.90;99.90;;;;;;4993040;28;19921;-80
2023/09/28 12:14:40;;;;;;;;;;;19.00;99.90;;;;;;4993463;28;19928;-77
2023/09/28 12:17:05;;;;;;;;;;;19.00;99.90;;;;;;4993422;28;19921;-78
2023/09/28 12:19:31;;;;;;;;;;;19.10;99.90;;;;;;4993078;28;19922;-77
2023/09/28 12:21:58;;;;;;;;;;;19.10;99.90;;;;;;4992952;28;19933;-79
2023/09/28 12:24:26;;;;;;;;;;;19.10;99.90;;;;;;4993022;28;19922;-77
2023/09/28 12:26:52;;;;;;;;;;;19.10;99.90;;;;;;4993026;28;20004;-76
2023/09/28 12:29:18;;;;;;;;;;;19.10;99.90;;;;;;4994456;28;20378;-77
2023/09/28 12:31:44;;;;;;;;;;;19.00;99.90;;;;;;4993300;28;19925;-79
2023/09/28 12:34:10;;;;;;;;;;;19.00;99.90;;;;;;4992947;28;19922;-77
2023/09/28 12:36:39;;;;;;;;;;;19.00;99.90;;;;;;4992897;28;20390;-77
2023/09/28 12:39:04;;;;;;;;;;;18.90;99.90;;;;;;4993194;28;20023;-78
2023/09/28 12:41:30;;;;;;;;;;;18.90;99.90;;;;;;4992872;28;19921;-79
2023/09/28 12:43:56;;;;;;;;;;;18.90;99.90;;;;;;4992918;28;19922;-79
2023/09/28 12:46:21;;;;;;;;;;;18.90;99.90;;;;;;4992829;28;19922;-78
2023/09/28 12:48:47;;;;;;;;;;;18.90;99.90;;;;;;4992797;28;19926;-77
2023/09/28 12:51:13;;;;;;;;;;;18.80;99.90;;;;;;4992736;28;19929;-78
2023/09/28 12:53:39;;;;;;;;;;;18.80;99.90;;;;;;4992785;28;19960;-78
2023/09/28 12:56:05;;;;;;;;;;;18.80;99.90;;;;;;4993030;28;19969;-77
2023/09/28 12:58:30;;;;;;;;;;;18.80;99.90;;;;;;4992994;28;20401;-78
2023/09/28 13:00:56;;;;;;;;;;;18.80;99.90;;;;;;4992784;28;20412;-75
2023/09/28 13:03:21;;;;;;;;;;;18.70;99.90;;;;;;4994241;28;20473;-78
2023/09/28 13:05:47;;;;;;;;;;;18.70;99.90;;;;;;4992985;28;19921;-78
2023/09/28 13:08:12;;;;;;;;;;;18.70;99.90;;;;;;4994071;28;19930;-78
2023/09/28 13:10:38;;;;;;;;;;;18.80;99.90;;;;;;4997820;28;19972;-77
2023/09/28 13:13:07;;;;;;;;;;;18.80;99.90;;;;;;4996376;28;20442;-80
2023/09/28 13:15:33;;;;;;;;;;;18.80;99.90;;;;;;4996279;28;19929;-79
2023/09/28 13:18:00;;;;;;;;;;;18.80;99.90;;;;;;4996576;28;20298;-80
2023/09/28 13:20:29;;;;;;;;;;;18.80;99.90;;;;;;4996143;28;19928;-77
2023/09/28 13:22:57;;;;;;;;;;;18.80;99.90;;;;;;4996223;28;19929;-79
2023/09/28 13:25:26;;;;;;;;;;;18.80;99.90;;;;;;4996372;28;19922;-79
2023/09/28 13:27:52;;;;;;;;;;;18.80;99.90;;;;;;4996358;28;20301;-79
2023/09/28 13:30:21;;;;;;;;;;;18.80;99.90;;;;;;4995838;28;19933;-78
2023/09/28 13:32:46;;;;;;;;;;;18.80;99.90;;;;;;4979683;28;19922;-79
2023/09/28 13:35:13;;;;;;;;;;;18.70;99.90;;;;;;4995839;28;19928;-79
2023/09/28 13:37:39;;;;;;;;;;;18.70;99.90;;;;;;4995754;28;19928;-78
2023/09/28 13:40:13;;;;;;;;;;;18.70;99.90;;;;;;4995712;28;19921;-78
2023/09/28 13:42:38;;;;;;;;;;;18.70;99.90;;;;;;4995674;28;19961;-76
2023/09/28 13:45:04;;;;;;;;;;;18.70;99.90;;;;;;4995752;28;19968;-76
2023/09/28 13:47:30;;;;;;;;;;;18.70;99.90;;;;;;4995683;28;20400;-76
2023/09/28 13:49:56;;;;;;;;;;;18.70;99.90;;;;;;4995673;28;19926;-76
2023/09/28 13:52:21;;;;;;;;;;;18.70;99.90;;;;;;4996904;28;20300;-78
2023/09/28 13:54:47;;;;;;;;;;;18.70;99.90;;;;;;4995481;28;19974;-77
2023/09/28 13:57:14;;;;;;;;;;;18.70;99.90;;;;;;4995550;28;19949;-78
2023/09/28 13:59:40;;;;;;;;;;;18.80;99.90;;;;;;4995531;28;20016;-77
2023/09/28 14:02:08;;;;;;;;;;;18.80;99.90;;;;;;4995221;28;19991;-77
2023/09/28 14:04:34;;;;;;;;;;;18.80;99.90;;;;;;4995731;28;20362;-79
2023/09/28 14:07:00;;;;;;;;;;;18.80;99.90;;;;;;4995266;28;20455;-77
2023/09/28 14:09:27;;;;;;;;;;;18.90;99.90;;;;;;4996468;28;19981;-76
2023/09/28 14:11:53;;;;;;;;;;;18.90;99.90;;;;;;4995236;28;20377;-78
2023/09/28 14:14:19;;;;;;;;;;;18.90;99.90;;;;;;4996435;28;20424;-79
2023/09/28 14:16:45;;;;;;;;;;;18.90;99.90;;;;;;4979004;28;19926;-77
2023/09/28 14:19:11;;;;;;;;;;;18.90;99.90;;;;;;4994838;28;19929;-77
2023/09/28 14:21:37;;;;;;;;;;;19.00;99.90;;;;;;4995112;28;19922;-76
2023/09/28 14:24:06;;;;;;;;;;;18.90;99.90;;;;;;4996478;28;19972;-76
2023/09/28 14:26:35;;;;;;;;;;;19.00;99.90;;;;;;4994954;28;20008;-79
2023/09/28 14:29:01;;;;;;;;;;;18.90;99.90;;;;;;4994858;28;20012;-80
2023/09/28 14:31:28;;;;;;;;;;;19.00;99.90;;;;;;4994918;28;19922;-78
2023/09/28 14:33:53;;;;;;;;;;;18.90;99.90;;;;;;4996395;28;19929;-79
2023/09/28 14:36:22;;;;;;;;;;;18.90;99.90;;;;;;4994777;28;19922;-77
2023/09/28 14:38:50;;;;;;;;;;;18.90;99.90;;;;;;4994745;28;19928;-77
2023/09/28 14:41:19;;;;;;;;;;;18.90;99.90;;;;;;4994625;28;19948;-78
2023/09/28 14:43:47;;;;;;;;;;;18.90;99.90;;;;;;4995908;28;19932;-79
2023/09/28 14:46:13;;;;;;;;;;;18.90;99.90;;;;;;4994908;28;20227;-78
2023/09/28 14:48:38;;;;;;;;;;;18.90;99.90;;;;;;4994458;28;19980;-77
2023/09/28 14:51:04;;;;;;;;;;;18.90;99.90;;;;;;4994483;28;19922;-77
2023/09/28 14:53:29;;;;;;;;;;;18.90;99.90;;;;;;4995658;28;19976;-76
2023/09/28 14:55:56;;;;;;;;;;;18.80;99.90;;;;;;4994454;28;19980;-80
2023/09/28 14:58:21;;;;;;;;;;;18.80;99.90;;;;;;4994399;28;19923;-76
2023/09/28 15:00:47;;;;;;;;;;;18.80;99.90;;;;;;4995390;28;19929;-78
2023/09/28 15:03:12;;;;;;;;;;;18.90;99.90;;;;;;4994689;28;19929;-78
2023/09/28 15:05:39;;;;;;;;;;;18.90;99.90;;;;;;4994674;28;19922;-78
2023/09/28 15:08:05;;;;;;;;;;;18.90;99.90;;;;;;4995704;28;19921;-76
2023/09/28 15:10:30;;;;;;;;;;;18.90;99.90;;;;;;4978017;28;19977;-76
2023/09/28 15:12:56;;;;;;;;;;;18.90;99.90;;;;;;4994325;28;19928;-77
2023/09/28 15:15:22;;;;;;;;;;;18.90;99.90;;;;;;4978540;28;20381;-77
2023/09/28 15:17:48;;;;;;;;;;;18.90;99.90;;;;;;4994137;28;19949;-76
2023/09/28 15:20:14;;;;;;;;;;;18.90;99.90;;;;;;4995798;28;19925;-79
2023/09/28 15:22:39;;;;;;;;;;;18.80;99.90;;;;;;4994022;28;19922;-78
2023/09/28 15:25:05;;;;;;;;;;;18.80;99.90;;;;;;4994247;28;19926;-78
2023/09/28 15:27:30;;;;;;;;;;;18.80;99.90;;;;;;4995293;28;19922;-77
2023/09/28 15:29:56;;;;;;;;;;;18.70;99.90;;;;;;4993918;28;20341;-78
2023/09/28 15:32:22;;;;;;;;;;;18.70;99.90;;;;;;4994272;28;19921;-77
2023/09/28 15:34:48;;;;;;;;;;;18.60;99.90;;;;;;4993842;28;20000;-77
2023/09/28 15:37:18;;;;;;;;;;;18.60;99.90;;;;;;4993720;28;19929;-76
2023/09/28 15:39:44;;;;;;;;;;;18.50;99.90;;;;;;4995010;28;19925;-77
2023/09/28 15:42:10;;;;;;;;;;;18.50;99.90;;;;;;4993646;28;19937;-77
2023/09/28 15:44:35;;;;;;;;;;;18.50;99.90;;;;;;4993863;28;20325;-77
2023/09/28 15:47:01;;;;;;;;;;;18.40;99.90;;;;;;4993512;28;19929;-78
2023/09/28 15:49:27;;;;;;;;;;;18.40;99.90;;;;;;4993303;28;19925;-77
2023/09/28 15:51:53;;;;;;;;;;;18.40;99.90;;;;;;4993522;28;20274;-77
2023/09/28 15:54:19;;;;;;;;;;;18.40;99.90;;;;;;4994613;28;19929;-77
2023/09/28 15:56:45;;;;;;;;;;;18.30;99.90;;;;;;4993458;28;19926;-79
2023/09/28 15:59:10;;;;;;;;;;;18.30;99.90;;;;;;4993471;28;19922;-76
2023/09/28 16:01:37;;;;;;;;;;;18.30;99.90;;;;;;4993558;28;19925;-79
2023/09/28 16:04:03;;;;;;;;;;;18.20;99.90;;;;;;4994681;28;20012;-77
2023/09/28 16:06:33;;;;;;;;;;;18.20;99.90;;;;;;4993717;28;19929;-78
2023/09/28 16:09:02;;;;;;;;;;;18.20;99.90;;;;;;4993348;28;19929;-78
2023/09/28 16:11:27;;;;;;;;;;;18.20;99.90;;;;;;4994867;28;19933;-78
2023/09/28 16:13:53;;;;;;;;;;;18.10;99.90;;;;;;4993191;28;20289;-76
2023/09/28 16:16:20;;;;;;;;;;;18.10;99.90;;;;;;4994713;28;19922;-77
2023/09/28 16:18:45;;;;;;;;;;;18.10;99.90;;;;;;4994481;28;19926;-76
2023/09/28 16:21:11;;;;;;;;;;;18.00;99.90;;;;;;4992985;28;19922;-79
2023/09/28 16:23:37;;;;;;;;;;;18.00;99.90;;;;;;4993100;28;19973;-79
2023/09/28 16:26:03;;;;;;;;;;;18.00;99.90;;;;;;4993144;28;19973;-80
2023/09/28 16:28:29;;;;;;;;;;;18.00;99.90;;;;;;4993333;28;19930;-77
2023/09/28 16:30:55;;;;;;;;;;;18.00;99.90;;;;;;4994487;28;20456;-78
2023/09/28 16:33:20;;;;;;;;;;;18.00;99.90;;;;;;4993063;28;19922;-79
2023/09/28 16:35:46;;;;;;;;;;;18.00;99.90;;;;;;4993005;28;19922;-77
2023/09/28 16:38:11;;;;;;;;;;;18.00;99.90;;;;;;4992843;28;19961;-78
2023/09/28 16:40:37;;;;;;;;;;;18.00;99.90;;;;;;4992843;28;20052;-79
2023/09/28 16:43:03;;;;;;;;;;;18.00;99.90;;;;;;4994010;28;19922;-78
2023/09/28 16:45:29;;;;;;;;;;;17.90;99.90;;;;;;4981242;28;19929;-76
2023/09/28 16:47:54;;;;;;;;;;;17.90;99.90;;;;;;4998057;28;20016;-76
2023/09/28 16:50:21;;;;;;;;;;;17.90;99.90;;;;;;4998593;28;19926;-77
2023/09/28 16:52:47;;;;;;;;;;;17.90;99.90;;;;;;4998243;28;19929;-76
2023/09/28 16:55:13;;;;;;;;;;;17.90;99.90;;;;;;4997987;28;19925;-76
2023/09/28 16:57:38;;;;;;;;;;;17.90;99.90;;;;;;4996730;28;20301;-79
2023/09/28 17:00:05;;;;;;;;;;;17.80;99.90;;;;;;4996847;28;19945;-78
2023/09/28 17:02:31;;;;;;;;;;;17.80;99.90;;;;;;4996503;28;19929;-78
2023/09/28 17:04:56;;;;;;;;;;;17.80;99.90;;;;;;4996609;28;19922;-78
2023/09/28 17:07:22;;;;;;;;;;;17.80;99.90;;;;;;4996547;28;19969;-77
2023/09/28 17:09:47;;;;;;;;;;;17.70;99.90;;;;;;4996441;28;20057;-76
2023/09/28 17:12:13;;;;;;;;;;;17.70;99.90;;;;;;4996281;28;19922;-77